Time;durP1;ratioP1;P1;durP2;ratioP2;P2;SDS_P1;SDS_P2;PMS_P1;PMS_P2;Temp;Humidity;BMP_temperature;BMP_pressure;BME280_temperature;BME280_humidity;BME280_pressure;Samples;Min_cycle;Max_cycle;Signal;HPM_P1;HPM_P2
2023/08/03 00:02:55;;;;;;;;;;;;;;;16.73;92.40625;98821.03;;;;-70
2023/08/03 00:07:54;;;;;;;;;;;;;;;16.71;92.77148;98824.56;;;;-70
2023/08/03 00:09:27;;;;;;;0.2;0;;;;;;;;;;;;;-69
2023/08/03 00:12:55;;;;;;;;;;;;;;;16.73;92.41699;98839.02;;;;-69
2023/08/03 00:17:54;;;;;;;;;;;;;;;16.74;92.55371;98845.61;;;;-70
2023/08/03 00:22:54;;;;;;;;;;;;;;;16.74;93.16895;98861.06;;;;-71
2023/08/03 00:27:54;;;;;;;;;;;;;;;16.75;93.59473;98866.15;;;;-70
2023/08/03 00:32:54;;;;;;;;;;;;;;;16.74;93.13281;98865.69;;;;-71
2023/08/03 00:37:55;;;;;;;;;;;;;;;16.75;92.55566;98869.15;;;;-71
2023/08/03 00:39:29;;;;;;;0.2;0;;;;;;;;;;;;;-70
2023/08/03 00:42:55;;;;;;;;;;;;;;;16.73;92.34863;98876.55;;;;-72
2023/08/03 00:47:54;;;;;;;;;;;;;;;16.69;92.86621;98882.2;;;;-70
2023/08/03 00:52:54;;;;;;;;;;;;;;;16.66;92.71484;98892.26;;;;-70
2023/08/03 00:57:54;;;;;;;;;;;;;;;16.62;92.23633;98902.81;;;;-70
2023/08/03 01:02:54;;;;;;;;;;;;;;;16.57;92.30469;98910.07;;;;-70
2023/08/03 01:07:54;;;;;;;;;;;;;;;16.56;92.0127;98919.34;;;;-72
2023/08/03 01:09:32;;;;;;;0.2;0;;;;;;;;;;;;;-70
2023/08/03 01:12:55;;;;;;;;;;;;;;;16.53;92.01855;98930.08;;;;-70
2023/08/03 01:17:54;;;;;;;;;;;;;;;16.49;92.33496;98930.97;;;;-70
2023/08/03 01:22:54;;;;;;;;;;;;;;;16.47;92.00293;98940.28;;;;-70
2023/08/03 01:27:55;;;;;;;;;;;;;;;16.42;91.99316;98949.95;;;;-71
2023/08/03 01:32:54;;;;;;;;;;;;;;;16.39;92.72559;98963.41;;;;-69
2023/08/03 01:37:56;;;;;;;;;;;;;;;16.35;92.69727;98971.8;;;;-69
2023/08/03 01:39:37;;;;;;;0.2;0.1;;;;;;;;;;;;;-70
2023/08/03 01:42:54;;;;;;;;;;;;;;;16.33;92.16699;98979.06;;;;-70
2023/08/03 01:47:55;;;;;;;;;;;;;;;16.29;91.97852;98981.41;;;;-70
2023/08/03 01:52:58;;;;;;;;;;;;;;;16.26;92.67676;98980.3;;;;-69
2023/08/03 01:57:54;;;;;;;;;;;;;;;16.26;91.76074;98990.36;;;;-69
2023/08/03 02:02:54;;;;;;;;;;;;;;;16.24;92.63867;98991.55;;;;-71
2023/08/03 02:07:55;;;;;;;;;;;;;;;16.26;93.22363;98985.95;;;;-70
2023/08/03 02:09:37;;;;;;;0.2;0;;;;;;;;;;;;;-70
2023/08/03 02:12:54;;;;;;;;;;;;;;;16.28;93.07324;98988.27;;;;-70
2023/08/03 02:17:54;;;;;;;;;;;;;;;16.27;92.91309;98991.5;;;;-72
2023/08/03 02:22:57;;;;;;;;;;;;;;;16.25;92.79688;98995.56;;;;-70
2023/08/03 02:27:55;;;;;;;;;;;;;;;16.22;93.10449;99007.44;;;;-70
2023/08/03 02:32:54;;;;;;;;;;;;;;;16.21;94.39746;99011.59;;;;-69
2023/08/03 02:37:54;;;;;;;;;;;;;;;16.19;93.88965;99020.97;;;;-70
2023/08/03 02:39:40;;;;;;;0.2;0.1;;;;;;;;;;;;;-69
2023/08/03 02:42:54;;;;;;;;;;;;;;;16.18;93.67773;99025.55;;;;-70
2023/08/03 02:47:55;;;;;;;;;;;;;;;16.2;94.22559;99030.27;;;;-70
2023/08/03 02:52:54;;;;;;;;;;;;;;;16.2;94.39355;99031.84;;;;-70
2023/08/03 02:57:54;;;;;;;;;;;;;;;16.2;94.08105;99031.77;;;;-69
2023/08/03 03:02:54;;;;;;;;;;;;;;;16.19;93.53223;99037.75;;;;-70
2023/08/03 03:07:57;;;;;;;;;;;;;;;16.18;94.05469;99044.34;;;;-69
2023/08/03 03:09:42;;;;;;;0.2;0;;;;;;;;;;;;;-70
2023/08/03 03:12:54;;;;;;;;;;;;;;;16.15;94.18457;99044.17;;;;-69
2023/08/03 03:17:54;;;;;;;;;;;;;;;16.14;93.93555;99048.52;;;;-69
2023/08/03 03:22:56;;;;;;;;;;;;;;;16.13;93.67871;99052.92;;;;-69
2023/08/03 03:27:55;;;;;;;;;;;;;;;16.13;93.71973;99053.96;;;;-69
2023/08/03 03:32:54;;;;;;;;;;;;;;;16.12;94.05273;99056.94;;;;-69
2023/08/03 03:37:54;;;;;;;;;;;;;;;16.07;94.05371;99066.83;;;;-70
2023/08/03 03:39:45;;;;;;;0.2;0;;;;;;;;;;;;;-69
2023/08/03 03:42:54;;;;;;;;;;;;;;;16.03;93.20703;99075.66;;;;-69
2023/08/03 03:47:54;;;;;;;;;;;;;;;16.04;92.8877;99083.3;;;;-68
2023/08/03 03:52:54;;;;;;;;;;;;;;;16.04;93.52344;99094.45;;;;-69
2023/08/03 03:57:55;;;;;;;;;;;;;;;16.06;92.95801;99098.41;;;;-69
2023/08/03 04:02:54;;;;;;;;;;;;;;;16.06;92.9248;99101.08;;;;-69
2023/08/03 04:07:54;;;;;;;;;;;;;;;16.09;93.04199;99105.69;;;;-71
2023/08/03 04:09:49;;;;;;;0.2;0.1;;;;;;;;;;;;;-69
2023/08/03 04:12:54;;;;;;;;;;;;;;;16.11;92.98047;99110.91;;;;-70
2023/08/03 04:17:54;;;;;;;;;;;;;;;16.12;92.98242;99115.46;;;;-70
2023/08/03 04:22:54;;;;;;;;;;;;;;;16.14;92.95313;99126.09;;;;-68
2023/08/03 04:27:54;;;;;;;;;;;;;;;16.15;93.14453;99127.97;;;;-69
2023/08/03 04:32:54;;;;;;;;;;;;;;;16.15;92.92188;99137.88;;;;-69
2023/08/03 04:37:54;;;;;;;;;;;;;;;16.17;92.80469;99147.45;;;;-71
2023/08/03 04:39:50;;;;;;;0.9;0.5;;;;;;;;;;;;;-70
2023/08/03 04:42:54;;;;;;;;;;;;;;;16.19;92.77344;99148.91;;;;-69
2023/08/03 04:47:54;;;;;;;;;;;;;;;16.23;92.93848;99152.08;;;;-69
2023/08/03 04:52:54;;;;;;;;;;;;;;;16.26;92.74316;99157.44;;;;-70
2023/08/03 04:57:57;;;;;;;;;;;;;;;16.28;92.87012;99162.74;;;;-68
2023/08/03 05:02:54;;;;;;;;;;;;;;;16.32;93.20313;99167.75;;;;-69
2023/08/03 05:07:54;;;;;;;;;;;;;;;16.35;92.97461;99170.66;;;;-70
2023/08/03 05:09:52;;;;;;;0.2;0.1;;;;;;;;;;;;;-70
2023/08/03 05:12:54;;;;;;;;;;;;;;;16.39;93.42871;99176.91;;;;-69
2023/08/03 05:17:54;;;;;;;;;;;;;;;16.43;93.84082;99189.02;;;;-70
2023/08/03 05:22:54;;;;;;;;;;;;;;;16.46;94.87402;99195.92;;;;-70
2023/08/03 05:27:54;;;;;;;;;;;;;;;16.5;95.9541;99200.3;;;;-70
2023/08/03 05:32:54;;;;;;;;;;;;;;;16.52;95.16504;99208.1;;;;-69
2023/08/03 05:37:55;;;;;;;;;;;;;;;16.53;94.47656;99213.33;;;;-69
2023/08/03 05:39:55;;;;;;;0.2;0.1;;;;;;;;;;;;;-70
2023/08/03 05:42:54;;;;;;;;;;;;;;;16.54;93.8623;99223.83;;;;-71
2023/08/03 05:47:54;;;;;;;;;;;;;;;16.56;93.66699;99235.09;;;;-69
2023/08/03 05:52:54;;;;;;;;;;;;;;;16.59;93.48242;99243.63;;;;-70
2023/08/03 05:57:54;;;;;;;;;;;;;;;16.64;93.53711;99249.2;;;;-70
2023/08/03 06:02:54;;;;;;;;;;;;;;;16.68;93.13477;99255.72;;;;-75
2023/08/03 06:07:54;;;;;;;;;;;;;;;16.73;93.32324;99262.31;;;;-73
2023/08/03 06:10:00;;;;;;;0.2;0;;;;;;;;;;;;;-75
2023/08/03 06:12:56;;;;;;;;;;;;;;;16.78;92.45117;99276.91;;;;-73
2023/08/03 06:17:54;;;;;;;;;;;;;;;16.88;93.5459;99286.97;;;;-72
2023/08/03 06:22:57;;;;;;;;;;;;;;;17.01;92.68652;99297.09;;;;-73
2023/08/03 06:27:55;;;;;;;;;;;;;;;17.09;91.97656;99312.02;;;;-73
2023/08/03 06:32:54;;;;;;;;;;;;;;;17.16;91.80078;99327.6;;;;-74
2023/08/03 06:37:55;;;;;;;;;;;;;;;17.26;92.02344;99334.55;;;;-72
2023/08/03 06:40:00;;;;;;;0.2;0.1;;;;;;;;;;;;;-71
2023/08/03 06:42:54;;;;;;;;;;;;;;;17.38;91.75684;99344.98;;;;-72
2023/08/03 06:47:56;;;;;;;;;;;;;;;17.46;92.04199;99359.95;;;;-73
2023/08/03 06:52:54;;;;;;;;;;;;;;;17.52;91.4707;99370.77;;;;-72
2023/08/03 06:57:54;;;;;;;;;;;;;;;17.58;90.95703;99377.67;;;;-71
2023/08/03 07:02:54;;;;;;;;;;;;;;;17.67;90.66211;99389.81;;;;-73
2023/08/03 07:07:54;;;;;;;;;;;;;;;17.82;90.80371;99393.11;;;;-71
2023/08/03 07:10:03;;;;;;;0.2;0.1;;;;;;;;;;;;;-73
2023/08/03 07:12:54;;;;;;;;;;;;;;;18.2;90.55664;99411.56;;;;-72
2023/08/03 07:17:54;;;;;;;;;;;;;;;18.65;90.0752;99424.19;;;;-72
2023/08/03 07:22:54;;;;;;;;;;;;;;;18.91;89.14844;99446.84;;;;-72
2023/08/03 07:27:54;;;;;;;;;;;;;;;18.97;90.24121;99461.09;;;;-71
2023/08/03 07:32:57;;;;;;;;;;;;;;;18.91;90.50684;99475.09;;;;-71
2023/08/03 07:37:54;;;;;;;;;;;;;;;18.83;89.98633;99488.44;;;;-72
2023/08/03 07:40:05;;;;;;;0.2;0;;;;;;;;;;;;;-71
2023/08/03 07:42:54;;;;;;;;;;;;;;;18.87;91.04102;99497.86;;;;-71
2023/08/03 07:47:54;;;;;;;;;;;;;;;18.95;92.02441;99505.44;;;;-71
2023/08/03 07:52:54;;;;;;;;;;;;;;;18.91;91.23047;99525.52;;;;-72
2023/08/03 07:57:54;;;;;;;;;;;;;;;19.14;91.07227;99528.61;;;;-72
2023/08/03 08:02:55;;;;;;;;;;;;;;;19.78;88.87207;99545.41;;;;-72
2023/08/03 08:07:54;;;;;;;;;;;;;;;20.26;86.87988;99557.7;;;;-71
2023/08/03 08:10:11;;;;;;;0.2;0;;;;;;;;;;;;;-71
2023/08/03 08:12:54;;;;;;;;;;;;;;;20.6;85.21582;99572.44;;;;-71
2023/08/03 08:17:54;;;;;;;;;;;;;;;20.58;84.98438;99578.25;;;;-71
2023/08/03 08:22:54;;;;;;;;;;;;;;;20.55;84.37988;99592.67;;;;-72
2023/08/03 08:27:55;;;;;;;;;;;;;;;20.22;85.1543;99611.19;;;;-73
2023/08/03 08:32:54;;;;;;;;;;;;;;;20.04;85.50586;99619.22;;;;-72
2023/08/03 08:37:54;;;;;;;;;;;;;;;19.94;86.41016;99631.63;;;;-72
2023/08/03 08:40:12;;;;;;;0.2;0;;;;;;;;;;;;;-71
2023/08/03 08:42:59;;;;;;;;;;;;;;;20.04;86.9375;99644.64;;;;-71
2023/08/03 08:47:54;;;;;;;;;;;;;;;19.99;87.16504;99652.13;;;;-71
2023/08/03 08:52:55;;;;;;;;;;;;;;;19.9;88.01563;99656.8;;;;-72
2023/08/03 08:57:54;;;;;;;;;;;;;;;19.89;88.2832;99670.75;;;;-71
2023/08/03 09:02:57;;;;;;;;;;;;;;;19.94;87.19043;99692;;;;-72
2023/08/03 09:08:04;;;;;;;;;;;;;;;19.98;87.3877;99704.7;;;;-71
2023/08/03 09:10:14;;;;;;;0.5;0.1;;;;;;;;;;;;;-70
2023/08/03 09:12:54;;;;;;;;;;;;;;;20.09;87.16016;99710.07;;;;-70
2023/08/03 09:18:04;;;;;;;;;;;;;;;20.24;86.5127;99713.36;;;;-72
2023/08/03 09:22:54;;;;;;;;;;;;;;;20.17;86.00391;99731.42;;;;-71
2023/08/03 09:27:55;;;;;;;;;;;;;;;20.11;86.08398;99740.88;;;;-72
2023/08/03 09:32:55;;;;;;;;;;;;;;;20.16;86.43164;99752.08;;;;-71
2023/08/03 09:37:55;;;;;;;;;;;;;;;20.25;85.65723;99766.52;;;;-71
2023/08/03 09:40:17;;;;;;;0.2;0;;;;;;;;;;;;;-72
2023/08/03 09:42:54;;;;;;;;;;;;;;;20.14;85.27637;99781.09;;;;-72
2023/08/03 09:47:56;;;;;;;;;;;;;;;20;85.27148;99785.33;;;;-72
2023/08/03 09:52:56;;;;;;;;;;;;;;;19.92;86.55371;99798.63;;;;-71
2023/08/03 09:58:02;;;;;;;;;;;;;;;19.84;86.24609;99821.83;;;;-71
2023/08/03 10:02:55;;;;;;;;;;;;;;;19.64;87.1416;99825.45;;;;-71
2023/08/03 10:08:00;;;;;;;;;;;;;;;19.66;86.9209;99835.34;;;;-72
2023/08/03 10:10:21;;;;;;;0.2;0.1;;;;;;;;;;;;;-71
2023/08/03 10:12:59;;;;;;;;;;;;;;;19.77;87.07813;99851.12;;;;-72
2023/08/03 10:17:55;;;;;;;;;;;;;;;19.78;85.99707;99868.41;;;;-70
2023/08/03 10:23:06;;;;;;;;;;;;;;;19.67;86.02051;99881.55;;;;-71
2023/08/03 10:28:05;;;;;;;;;;;;;;;19.53;85.99316;99910.42;;;;-71
2023/08/03 10:32:54;;;;;;;;;;;;;;;19.47;85.14746;99904.55;;;;-72
2023/08/03 10:38:00;;;;;;;;;;;;;;;19.32;85.72852;99913.27;;;;-71
2023/08/03 10:40:29;;;;;;;0.2;0;;;;;;;;;;;;;-71
2023/08/03 10:43:04;;;;;;;;;;;;;;;19.41;85.29395;99933.61;;;;-72
2023/08/03 10:47:54;;;;;;;;;;;;;;;19.45;84.8291;99935.25;;;;-70
2023/08/03 10:52:54;;;;;;;;;;;;;;;19.73;83.27832;99948.25;;;;-71
2023/08/03 10:57:55;;;;;;;;;;;;;;;19.89;82.94727;99952.53;;;;-71
2023/08/03 11:02:57;;;;;;;;;;;;;;;20.13;81.96289;99964.84;;;;-70
2023/08/03 11:07:54;;;;;;;;;;;;;;;20.42;81.35938;99976.55;;;;-72
2023/08/03 11:10:27;;;;;;;0.2;0.1;;;;;;;;;;;;;-71
2023/08/03 11:12:55;;;;;;;;;;;;;;;20.8;79.87598;99991.03;;;;-71
2023/08/03 11:17:54;;;;;;;;;;;;;;;20.99;79.49121;100008.2;;;;-73
2023/08/03 11:22:54;;;;;;;;;;;;;;;21.07;79.01953;100028.1;;;;-71
2023/08/03 11:27:54;;;;;;;;;;;;;;;21.02;78.39746;100035.2;;;;-72
2023/08/03 11:32:59;;;;;;;;;;;;;;;20.99;78.91406;100051.7;;;;-71
2023/08/03 11:37:54;;;;;;;;;;;;;;;20.97;79.25098;100067.3;;;;-71
2023/08/03 11:40:30;;;;;;;0.2;0;;;;;;;;;;;;;-72
2023/08/03 11:42:54;;;;;;;;;;;;;;;20.98;79.2168;100087.8;;;;-72
2023/08/03 11:47:54;;;;;;;;;;;;;;;20.94;79.12012;100104.8;;;;-72
2023/08/03 11:53:00;;;;;;;;;;;;;;;20.74;79.13184;100120.6;;;;-70
2023/08/03 12:02:54;;;;;;;;;;;;;;;20.45;79.42969;100143.5;;;;-71
2023/08/03 12:08:00;;;;;;;;;;;;;;;20.36;79.87891;100154.9;;;;-71
2023/08/03 12:10:34;;;;;;;0.2;0;;;;;;;;;;;;;-71
2023/08/03 12:12:54;;;;;;;;;;;;;;;20.37;80.18652;100161.8;;;;-71
2023/08/03 12:17:54;;;;;;;;;;;;;;;20.46;79.88574;100168.8;;;;-72
2023/08/03 12:22:54;;;;;;;;;;;;;;;20.52;79.71387;100180;;;;-70
2023/08/03 12:27:54;;;;;;;;;;;;;;;20.55;79.79785;100194.6;;;;-71
2023/08/03 12:32:57;;;;;;;;;;;;;;;20.6;79.72852;100207.2;;;;-71
2023/08/03 12:37:54;;;;;;;;;;;;;;;20.49;79.51855;100207.9;;;;-72
2023/08/03 12:40:38;;;;;;;0.2;0.1;;;;;;;;;;;;;-72
2023/08/03 12:42:58;;;;;;;;;;;;;;;20.51;79.45215;100229.1;;;;-74
2023/08/03 12:47:56;;;;;;;;;;;;;;;20.57;79.79199;100237.5;;;;-70
2023/08/03 12:52:54;;;;;;;;;;;;;;;20.57;79.70117;100253.8;;;;-69
2023/08/03 12:57:54;;;;;;;;;;;;;;;20.53;79.68164;100260.1;;;;-69
2023/08/03 13:02:54;;;;;;;;;;;;;;;20.45;79.85938;100272.4;;;;-69
2023/08/03 13:07:54;;;;;;;;;;;;;;;20.42;80.00195;100283.6;;;;-69
2023/08/03 13:10:40;;;;;;;0.2;0;;;;;;;;;;;;;-68
2023/08/03 13:12:54;;;;;;;;;;;;;;;20.35;79.79688;100297.1;;;;-68
2023/08/03 13:17:54;;;;;;;;;;;;;;;20.31;79.54297;100308.2;;;;-69
2023/08/03 13:22:54;;;;;;;;;;;;;;;20.37;79.55273;100309.6;;;;-69
2023/08/03 13:27:55;;;;;;;;;;;;;;;20.5;79.31445;100325.7;;;;-69
2023/08/03 13:32:54;;;;;;;;;;;;;;;20.63;78.58984;100344.9;;;;-68
2023/08/03 13:37:57;;;;;;;;;;;;;;;20.67;77.96289;100357.1;;;;-68
2023/08/03 13:40:44;;;;;;;0.2;0;;;;;;;;;;;;;-69
2023/08/03 13:42:54;;;;;;;;;;;;;;;20.52;77.99316;100367.8;;;;-67
2023/08/03 13:47:54;;;;;;;;;;;;;;;20.47;78.18848;100380.7;;;;-70
2023/08/03 13:52:54;;;;;;;;;;;;;;;20.39;78.44824;100398.4;;;;-69
2023/08/03 13:57:55;;;;;;;;;;;;;;;20.25;78.12598;100424;;;;-69
2023/08/03 14:02:54;;;;;;;;;;;;;;;20.1;77.69336;100429.4;;;;-67
2023/08/03 14:07:57;;;;;;;;;;;;;;;19.98;78.1709;100438.1;;;;-69
2023/08/03 14:10:47;;;;;;;0.4;0.2;;;;;;;;;;;;;-70
2023/08/03 14:12:55;;;;;;;;;;;;;;;19.9;78.20215;100444.2;;;;-68
2023/08/03 14:17:54;;;;;;;;;;;;;;;19.81;78.29883;100451.2;;;;-69
2023/08/03 14:22:54;;;;;;;;;;;;;;;19.87;78.76074;100457.2;;;;-69
2023/08/03 14:27:54;;;;;;;;;;;;;;;19.93;78.53418;100468;;;;-70
2023/08/03 14:32:54;;;;;;;;;;;;;;;19.93;78.47754;100486.2;;;;-69
2023/08/03 14:37:54;;;;;;;;;;;;;;;19.91;78.4541;100492.7;;;;-68
2023/08/03 14:40:50;;;;;;;0.2;0.1;;;;;;;;;;;;;-68
2023/08/03 14:42:54;;;;;;;;;;;;;;;19.8;79.05469;100501.5;;;;-68
2023/08/03 14:47:54;;;;;;;;;;;;;;;19.66;79.37012;100498.8;;;;-69
2023/08/03 14:52:54;;;;;;;;;;;;;;;19.62;79.38574;100511.9;;;;-69
2023/08/03 14:57:54;;;;;;;;;;;;;;;19.54;79.26953;100524.4;;;;-68
2023/08/03 15:02:54;;;;;;;;;;;;;;;19.47;79.2793;100534.3;;;;-68
2023/08/03 15:07:54;;;;;;;;;;;;;;;19.44;79.41016;100547.7;;;;-68
2023/08/03 15:10:57;;;;;;;0.3;0.1;;;;;;;;;;;;;-69
2023/08/03 15:12:54;;;;;;;;;;;;;;;19.35;79.57422;100553.5;;;;-69
2023/08/03 15:17:54;;;;;;;;;;;;;;;19.28;79.31152;100557.6;;;;-68
2023/08/03 15:22:54;;;;;;;;;;;;;;;19.22;79.12305;100563.9;;;;-68
2023/08/03 15:27:58;;;;;;;;;;;;;;;19.17;78.7627;100572;;;;-69
2023/08/03 15:32:54;;;;;;;;;;;;;;;19.13;79.0957;100586.9;;;;-69
2023/08/03 15:37:54;;;;;;;;;;;;;;;19.1;78.54688;100595.6;;;;-68
2023/08/03 15:40:57;;;;;;;0.2;0;;;;;;;;;;;;;-68
2023/08/03 15:42:54;;;;;;;;;;;;;;;19.03;78.5459;100601.1;;;;-67
2023/08/03 15:47:54;;;;;;;;;;;;;;;18.97;78.7168;100602.7;;;;-68
2023/08/03 15:52:54;;;;;;;;;;;;;;;18.91;79.30176;100608.8;;;;-68
2023/08/03 15:57:56;;;;;;;;;;;;;;;18.87;78.80078;100613.2;;;;-67
2023/08/03 16:02:54;;;;;;;;;;;;;;;18.84;79.23535;100614.8;;;;-68
2023/08/03 16:07:54;;;;;;;;;;;;;;;18.82;79.24219;100626.9;;;;-68
2023/08/03 16:11:04;;;;;;;0.3;0.1;;;;;;;;;;;;;-68
2023/08/03 16:13:08;;;;;;;;;;;;;;;18.81;79.31738;100631.5;;;;-68
2023/08/03 16:17:54;;;;;;;;;;;;;;;18.82;78.98242;100633.2;;;;-68
2023/08/03 16:22:54;;;;;;;;;;;;;;;18.8;78.41504;100639.5;;;;-68
2023/08/03 16:27:55;;;;;;;;;;;;;;;18.77;78.69434;100641.2;;;;-67
2023/08/03 16:32:54;;;;;;;;;;;;;;;18.77;78.49121;100642.6;;;;-67
2023/08/03 16:37:54;;;;;;;;;;;;;;;18.78;78.43457;100653.9;;;;-69
2023/08/03 16:41:09;;;;;;;0.3;0.1;;;;;;;;;;;;;-68
2023/08/03 16:42:56;;;;;;;;;;;;;;;18.79;78.33496;100653.9;;;;-69
2023/08/03 16:47:54;;;;;;;;;;;;;;;18.81;78.32617;100652.9;;;;-69
2023/08/03 16:52:54;;;;;;;;;;;;;;;18.82;78.29395;100660.8;;;;-69
2023/08/03 16:57:54;;;;;;;;;;;;;;;18.84;78.55664;100666.8;;;;-68
2023/08/03 17:02:54;;;;;;;;;;;;;;;18.86;78.41309;100674.8;;;;-71
2023/08/03 17:07:54;;;;;;;;;;;;;;;18.84;78.15039;100676.3;;;;-66
2023/08/03 17:11:06;;;;;;;0.2;0;;;;;;;;;;;;;-67
2023/08/03 17:12:54;;;;;;;;;;;;;;;18.81;77.99902;100693.8;;;;-66
2023/08/03 17:17:54;;;;;;;;;;;;;;;18.73;78.45898;100699.9;;;;-66
2023/08/03 17:22:54;;;;;;;;;;;;;;;18.67;78.71973;100697;;;;-67
2023/08/03 17:27:54;;;;;;;;;;;;;;;18.62;79.08398;100707.1;;;;-69
2023/08/03 17:32:57;;;;;;;;;;;;;;;18.59;79.23633;100713.7;;;;-68
2023/08/03 17:37:54;;;;;;;;;;;;;;;18.56;79.44434;100715.5;;;;-68
2023/08/03 17:41:08;;;;;;;0.2;0;;;;;;;;;;;;;-68
2023/08/03 17:42:54;;;;;;;;;;;;;;;18.52;79.51563;100723.3;;;;-68
2023/08/03 17:47:54;;;;;;;;;;;;;;;18.46;79.57324;100730.9;;;;-67
2023/08/03 17:52:57;;;;;;;;;;;;;;;18.42;80.11719;100738.4;;;;-69
2023/08/03 17:57:54;;;;;;;;;;;;;;;18.38;79.98633;100748.4;;;;-69
2023/08/03 18:02:57;;;;;;;;;;;;;;;18.34;80.14941;100754.3;;;;-68
2023/08/03 18:07:54;;;;;;;;;;;;;;;18.33;80.04492;100762.3;;;;-68
2023/08/03 18:11:12;;;;;;;0.2;0;;;;;;;;;;;;;-68
2023/08/03 18:12:54;;;;;;;;;;;;;;;18.32;80.05371;100768.5;;;;-69
2023/08/03 18:17:54;;;;;;;;;;;;;;;18.31;79.61523;100771.6;;;;-67
2023/08/03 18:22:55;;;;;;;;;;;;;;;18.35;79.74512;100782.4;;;;-66
2023/08/03 18:27:57;;;;;;;;;;;;;;;18.36;79.50879;100793.2;;;;-71
2023/08/03 18:32:55;;;;;;;;;;;;;;;18.33;79.66113;100793.7;;;;-68
2023/08/03 18:37:54;;;;;;;;;;;;;;;18.3;79.72559;100807.7;;;;-68
2023/08/03 18:41:15;;;;;;;0.2;0.1;;;;;;;;;;;;;-67
2023/08/03 18:42:54;;;;;;;;;;;;;;;18.26;79.79492;100809.6;;;;-68
2023/08/03 18:47:54;;;;;;;;;;;;;;;18.2;79.70605;100816.1;;;;-68
2023/08/03 18:52:55;;;;;;;;;;;;;;;18.14;80.05469;100821.3;;;;-68
2023/08/03 18:57:54;;;;;;;;;;;;;;;18.07;80.11133;100837.4;;;;-68
2023/08/03 19:02:59;;;;;;;;;;;;;;;18.02;80.06934;100846.2;;;;-68
2023/08/03 19:07:54;;;;;;;;;;;;;;;17.96;79.82129;100849.1;;;;-68
2023/08/03 19:11:17;;;;;;;0.2;0;;;;;;;;;;;;;-68
2023/08/03 19:12:55;;;;;;;;;;;;;;;17.91;80.00293;100852.4;;;;-71
2023/08/03 19:17:54;;;;;;;;;;;;;;;17.85;79.7002;100858.4;;;;-68
2023/08/03 19:22:54;;;;;;;;;;;;;;;17.79;79.41895;100863.2;;;;-69
2023/08/03 19:27:56;;;;;;;;;;;;;;;17.7;79.43652;100869.4;;;;-70
2023/08/03 19:32:54;;;;;;;;;;;;;;;17.66;79.57617;100879.3;;;;-68
2023/08/03 19:37:54;;;;;;;;;;;;;;;17.61;79.75977;100878.3;;;;-69
2023/08/03 19:41:20;;;;;;;0.2;0;;;;;;;;;;;;;-68
2023/08/03 19:42:55;;;;;;;;;;;;;;;17.54;79.69043;100882.7;;;;-68
2023/08/03 19:47:55;;;;;;;;;;;;;;;17.48;79.91504;100887;;;;-69
2023/08/03 19:52:54;;;;;;;;;;;;;;;17.43;79.72656;100899.5;;;;-68
2023/08/03 19:57:54;;;;;;;;;;;;;;;17.37;80.31152;100908.2;;;;-68
2023/08/03 20:02:54;;;;;;;;;;;;;;;17.31;80.23242;100909;;;;-68
2023/08/03 20:07:56;;;;;;;;;;;;;;;17.26;80.39258;100912.6;;;;-69
2023/08/03 20:11:22;;;;;;;0.2;0.1;;;;;;;;;;;;;-67
2023/08/03 20:12:54;;;;;;;;;;;;;;;17.21;80.45117;100915.3;;;;-68
2023/08/03 20:17:54;;;;;;;;;;;;;;;17.18;80.55762;100925.5;;;;-69
2023/08/03 20:22:54;;;;;;;;;;;;;;;17.12;80.59082;100926.2;;;;-67
2023/08/03 20:27:54;;;;;;;;;;;;;;;17.06;80.64844;100929.8;;;;-68
2023/08/03 20:32:54;;;;;;;;;;;;;;;17.01;80.63867;100934.9;;;;-68
2023/08/03 20:37:54;;;;;;;;;;;;;;;16.98;80.58984;100942.8;;;;-68
2023/08/03 20:41:27;;;;;;;0.2;0;;;;;;;;;;;;;-69
2023/08/03 20:42:54;;;;;;;;;;;;;;;16.94;80.64746;100948.7;;;;-69
2023/08/03 20:47:56;;;;;;;;;;;;;;;16.91;80.81055;100953.5;;;;-67
2023/08/03 20:52:54;;;;;;;;;;;;;;;16.86;;100962.3;;;;-68
2023/08/03 20:57:54;;;;;;;;;;;;;;;16.85;80.85742;100971.3;;;;-71
2023/08/03 21:02:55;;;;;;;;;;;;;;;16.8;80.95898;100982.6;;;;-68
2023/08/03 21:07:54;;;;;;;;;;;;;;;16.78;81.10156;100982.4;;;;-67
2023/08/03 21:11:27;;;;;;;0.2;0.1;;;;;;;;;;;;;-69
2023/08/03 21:12:54;;;;;;;;;;;;;;;16.76;80.99805;100990.7;;;;-68
2023/08/03 21:17:54;;;;;;;;;;;;;;;16.72;81.06934;100996.3;;;;-68
2023/08/03 21:22:54;;;;;;;;;;;;;;;16.69;81.19922;101001.5;;;;-68
2023/08/03 21:27:54;;;;;;;;;;;;;;;16.68;81.2627;101006.1;;;;-68
2023/08/03 21:32:54;;;;;;;;;;;;;;;16.66;81.32715;101008.2;;;;-68
2023/08/03 21:37:56;;;;;;;;;;;;;;;16.64;81.31055;101015.4;;;;-68
2023/08/03 21:41:30;;;;;;;0.2;0.1;;;;;;;;;;;;;-69
2023/08/03 21:42:54;;;;;;;;;;;;;;;16.63;81.35547;101016.7;;;;-72
2023/08/03 21:47:54;;;;;;;;;;;;;;;16.61;81.20605;101022.8;;;;-68
2023/08/03 21:52:54;;;;;;;;;;;;;;;16.58;81.30273;101027.2;;;;-70
2023/08/03 21:57:54;;;;;;;;;;;;;;;16.58;81.25586;101029.7;;;;-69
2023/08/03 22:02:54;;;;;;;;;;;;;;;16.55;81.55371;101037.5;;;;-67
2023/08/03 22:07:55;;;;;;;;;;;;;;;16.55;81.18359;101044.5;;;;-69
2023/08/03 22:11:33;;;;;;;0.2;0.1;;;;;;;;;;;;;-68
2023/08/03 22:12:55;;;;;;;;;;;;;;;16.52;81.42383;101044.3;;;;-67
2023/08/03 22:17:54;;;;;;;;;;;;;;;16.5;81.28711;101043.8;;;;-67
2023/08/03 22:22:54;;;;;;;;;;;;;;;16.47;81.48242;101045.1;;;;-68
2023/08/03 22:27:54;;;;;;;;;;;;;;;16.46;81.79492;101050.3;;;;-69
2023/08/03 22:32:57;;;;;;;;;;;;;;;16.43;81.58789;101049.9;;;;-68
2023/08/03 22:37:54;;;;;;;;;;;;;;;16.4;81.61719;101055.6;;;;-68
2023/08/03 22:41:37;;;;;;;0.2;0.1;;;;;;;;;;;;;-68
2023/08/03 22:42:54;;;;;;;;;;;;;;;16.39;81.64746;101060.2;;;;-68
2023/08/03 22:47:54;;;;;;;;;;;;;;;16.38;81.75879;101068.4;;;;-69
2023/08/03 22:52:56;;;;;;;;;;;;;;;16.36;81.89941;101073.6;;;;-69
2023/08/03 22:57:54;;;;;;;;;;;;;;;16.35;82.0791;101076.1;;;;-68
2023/08/03 23:02:54;;;;;;;;;;;;;;;16.32;82.11719;101072.1;;;;-69
2023/08/03 23:07:55;;;;;;;;;;;;;;;16.28;82.31152;101069.5;;;;-68
2023/08/03 23:11:36;;;;;;;0.2;0.1;;;;;;;;;;;;;-68
2023/08/03 23:12:54;;;;;;;;;;;;;;;16.25;82.40625;101078.3;;;;-68
2023/08/03 23:17:55;;;;;;;;;;;;;;;16.21;82.54492;101083.9;;;;-68
2023/08/03 23:22:57;;;;;;;;;;;;;;;16.17;82.51367;101080.7;;;;-68
2023/08/03 23:27:55;;;;;;;;;;;;;;;16.13;82.31836;101080.9;;;;-68
2023/08/03 23:32:54;;;;;;;;;;;;;;;16.09;82.38672;101084.8;;;;-69
2023/08/03 23:37:54;;;;;;;;;;;;;;;16.09;82.38672;101082.9;;;;-68
2023/08/03 23:41:39;;;;;;;0.2;0.1;;;;;;;;;;;;;-69
2023/08/03 23:42:54;;;;;;;;;;;;;;;16.05;82.41406;101084.3;;;;-68
2023/08/03 23:47:54;;;;;;;;;;;;;;;16.04;82.34473;101083.1;;;;-68
2023/08/03 23:52:54;;;;;;;;;;;;;;;15.99;82.65918;101083.7;;;;-68
2023/08/03 23:57:54;;;;;;;;;;;;;;;15.98;82.61426;101089.4;;;;-69
